Time;durP1;ratioP1;P1;durP2;ratioP2;P2;SDS_P1;SDS_P2;PMS_P1;PMS_P2;Temp;Humidity;BMP_temperature;BMP_pressure;BME280_temperature;BME280_humidity;BME280_pressure;Samples;Min_cycle;Max_cycle;Signal;HPM_P1;HPM_P2
2022/08/04 00:01:11;;;;;;;12.88;3.47;;;21.30;97.80;;;;;;5092281;28;20122;-70
2022/08/04 00:03:54;;;;;;;13.75;3.83;;;22.40;99.90;;;;;;5091807;28;20050;-70
2022/08/04 00:07:01;;;;;;;12.15;4.13;;;22.30;99.90;;;;;;5092195;28;20061;-70
2022/08/04 00:09:47;;;;;;;11.77;3.75;;;21.50;99.90;;;;;;5108714;28;20105;-70
2022/08/04 00:12:15;;;;;;;9.77;3.80;;;21.20;97.80;;;;;;5092464;28;20048;-70
2022/08/04 00:14:48;;;;;;;10.85;3.78;;;21.70;99.30;;;;;;5092203;28;20036;-70
2022/08/04 00:17:15;;;;;;;9.93;4.03;;;21.90;99.90;;;;;;5092340;28;20595;-70
2022/08/04 00:19:46;;;;;;;9.15;3.80;;;20.50;99.90;;;;;;5092033;28;20048;-70
2022/08/04 00:22:13;;;;;;;9.77;3.58;;;22.30;99.90;;;;;;5093196;28;20503;-70
2022/08/04 00:24:40;;;;;;;8.57;4.07;;;20.90;99.90;;;;;;5091987;28;20100;-70
2022/08/04 00:27:07;;;;;;;16.67;3.58;;;21.90;99.90;;;;;;5092382;28;20040;-70
2022/08/04 00:29:36;;;;;;;17.02;3.92;;;22.20;99.00;;;;;;5091904;28;20044;-70
2022/08/04 00:32:02;;;;;;;16.58;3.72;;;21.30;99.90;;;;;;5091957;28;20040;-70
2022/08/04 00:34:30;;;;;;;16.98;4.05;;;21.00;98.00;;;;;;5091892;28;20051;-70
2022/08/04 00:36:57;;;;;;;10.63;3.78;;;21.40;99.90;;;;;;5091960;28;20051;-70
2022/08/04 00:39:24;;;;;;;10.38;3.35;;;21.90;99.90;;;;;;5091813;28;20044;-70
2022/08/04 00:42:30;;;;;;;14.55;3.92;;;21.00;97.00;;;;;;5092120;28;20071;-70
2022/08/04 00:44:58;;;;;;;13.48;3.78;;;21.00;97.00;;;;;;5091777;28;20043;-70
2022/08/04 00:47:55;;;;;;;11.20;3.78;;;20.90;97.10;;;;;;5092890;28;20044;-70
2022/08/04 00:50:49;;;;;;;14.27;4.00;;;20.80;98.10;;;;;;5091732;28;20051;-70
2022/08/04 00:53:27;;;;;;;11.85;3.80;;;22.00;99.90;;;;;;5091793;28;20044;-70
2022/08/04 00:56:04;;;;;;;16.55;4.47;;;22.00;99.90;;;;;;5092031;28;20070;-70
2022/08/04 00:58:49;;;;;;;14.30;5.40;;;22.10;99.00;;;;;;5091700;28;20051;-70
2022/08/04 01:01:29;;;;;;;12.57;3.88;;;21.90;99.90;;;;;;5092873;28;20051;-70
2022/08/04 01:04:20;;;;;;;11.43;4.30;;;20.10;99.90;;;;;;5074741;28;20032;-70
2022/08/04 01:07:15;;;;;;;13.50;4.28;;;21.50;99.90;;;;;;5091504;28;20519;-70
2022/08/04 01:10:22;;;;;;;14.52;4.38;;;21.10;98.80;;;;;;5091316;28;20175;-70
2022/08/04 01:13:24;;;;;;;15.90;4.50;;;20.70;99.90;;;;;;5095743;28;20044;-70
2022/08/04 01:15:53;;;;;;;16.02;4.47;;;20.70;97.50;;;;;;5094640;28;20440;-70
2022/08/04 01:18:30;;;;;;;9.95;4.30;;;19.10;97.10;;;;;;5095334;28;20052;-70
2022/08/04 01:21:29;;;;;;;18.80;5.30;;;21.00;99.90;;;;;;5095258;28;20048;-70
2022/08/04 01:24:13;;;;;;;14.65;4.40;;;21.80;99.90;;;;;;5095228;28;20136;-70
2022/08/04 01:26:51;;;;;;;13.57;4.57;;;21.80;99.90;;;;;;5095182;28;20047;-70
2022/08/04 01:29:25;;;;;;;15.30;4.60;;;19.50;99.90;;;;;;5095110;28;20115;-70
2022/08/04 01:32:08;;;;;;;12.95;4.35;;;20.90;97.70;;;;;;5090615;28;20051;-70
2022/08/04 01:34:41;;;;;;;14.82;4.05;;;20.80;98.80;;;;;;5094953;28;20040;-70
2022/08/04 01:37:10;;;;;;;11.27;4.18;;;;;;;;;;5095471;28;20044;-70
2022/08/04 01:39:48;;;;;;;15.48;4.57;;;21.10;99.90;;;;;;5094843;28;20040;-70
2022/08/04 01:42:17;;;;;;;15.90;4.53;;;19.40;98.50;;;;;;5095225;28;20110;-70
2022/08/04 01:44:47;;;;;;;12.30;4.30;;;21.20;99.90;;;;;;5095178;28;20369;-70
2022/08/04 01:47:15;;;;;;;13.13;5.00;;;20.50;98.80;;;;;;5095033;28;20043;-70
2022/08/04 01:49:45;;;;;;;11.75;3.65;;;21.60;99.90;;;;;;5094702;28;20119;-70
2022/08/04 01:52:15;;;;;;;11.98;4.05;;;20.50;98.90;;;;;;5094598;28;20044;-70
2022/08/04 01:54:42;;;;;;;11.70;4.35;;;20.80;98.80;;;;;;5094659;28;20454;-70
2022/08/04 01:57:09;;;;;;;11.77;3.65;;;;;;;;;;5077712;28;20042;-70
2022/08/04 01:59:37;;;;;;;8.15;4.00;;;21.40;99.90;;;;;;5094458;28;20040;-70
2022/08/04 02:02:06;;;;;;;10.35;3.97;;;20.40;98.90;;;;;;5094578;28;20119;-70
2022/08/04 02:04:32;;;;;;;13.90;3.95;;;21.60;99.90;;;;;;5094429;28;20044;-70
2022/08/04 02:07:18;;;;;;;9.98;3.90;;;20.70;99.60;;;;;;5094459;28;20048;-70
2022/08/04 02:10:01;;;;;;;10.70;3.95;;;20.90;99.90;;;;;;5094335;28;20048;-70
2022/08/04 02:12:55;;;;;;;14.95;4.13;;;20.50;99.70;;;;;;5094303;28;20044;-70
2022/08/04 02:15:29;;;;;;;17.08;4.85;;;21.60;99.90;;;;;;5094274;28;20044;-70
2022/08/04 02:18:03;;;;;;;15.82;4.28;;;19.40;99.90;;;;;;5094419;28;20062;-70
2022/08/04 02:20:34;;;;;;;10.82;4.15;;;;;;;;;;5094125;28;20046;-70
2022/08/04 02:23:15;;;;;;;10.57;4.53;;;21.40;99.90;;;;;;5094329;28;20147;-70
2022/08/04 02:26:00;;;;;;;18.05;4.55;;;21.60;99.90;;;;;;5093799;28;20044;-70
2022/08/04 02:28:39;;;;;;;16.17;4.28;;;21.00;99.90;;;;;;5093819;28;20400;-70
2022/08/04 02:31:31;;;;;;;16.67;5.00;;;20.80;99.90;;;;;;5095308;28;20051;-70
2022/08/04 02:34:22;;;;;;;12.77;4.10;;;20.60;99.60;;;;;;5093812;28;20044;-70
2022/08/04 02:36:50;;;;;;;14.27;4.85;;;20.70;99.30;;;;;;5093626;28;20047;-70
2022/08/04 02:39:19;;;;;;;18.90;4.63;;;20.60;99.30;;;;;;5093961;28;20052;-70
2022/08/04 02:41:47;;;;;;;16.60;7.22;;;20.50;99.90;;;;;;5093621;28;20079;-70
2022/08/04 02:44:18;;;;;;;12.40;4.53;;;21.80;99.90;;;;;;5093897;28;20047;-70
2022/08/04 02:46:46;;;;;;;7.63;3.85;;;21.10;99.90;;;;;;5093665;28;20055;-70
2022/08/04 02:49:13;;;;;;;11.25;4.80;;;19.40;99.90;;;;;;5093699;28;20400;-70
2022/08/04 02:51:46;;;;;;;10.55;3.88;;;20.30;98.60;;;;;;5095054;28;20036;-70
2022/08/04 02:54:16;;;;;;;11.10;3.92;;;21.50;99.90;;;;;;5093433;28;20107;-70
2022/08/04 02:56:44;;;;;;;11.93;3.92;;;20.20;99.20;;;;;;5093282;28;20036;-70
2022/08/04 02:59:12;;;;;;;12.80;4.75;;;20.50;99.40;;;;;;5076440;28;20050;-70
2022/08/04 03:01:39;;;;;;;12.18;4.25;;;21.10;99.90;;;;;;5094503;28;20051;-70
2022/08/04 03:04:16;;;;;;;10.75;4.70;;;20.60;99.60;;;;;;5093090;28;20047;-70
2022/08/04 03:07:20;;;;;;;8.55;3.50;;;20.60;99.90;;;;;;5092782;28;20055;-70
2022/08/04 03:10:08;;;;;;;8.93;3.22;;;21.00;99.90;;;;;;5093108;28;20404;-70
2022/08/04 03:12:49;;;;;;;10.63;2.92;;;20.30;99.90;;;;;;5098437;27;20052;-70
2022/08/04 03:15:43;;;;;;;11.80;3.60;;;20.60;99.70;;;;;;5092957;28;20484;-70
2022/08/04 03:18:09;;;;;;;12.45;4.20;;;;;;;;;;5092748;28;20091;-70
2022/08/04 03:21:12;;;;;;;15.38;4.05;;;20.90;99.90;;;;;;5092902;28;20075;-70
2022/08/04 03:24:15;;;;;;;9.38;3.88;;;20.50;98.40;;;;;;5093034;28;20202;-70
2022/08/04 03:27:09;;;;;;;12.70;3.40;;;20.70;98.50;;;;;;5092831;28;20047;-70
2022/08/04 03:29:43;;;;;;;8.00;3.17;;;20.90;98.60;;;;;;5092817;28;20122;-70
2022/08/04 03:32:21;;;;;;;9.30;3.75;;;19.30;99.90;;;;;;5092732;28;20040;-70
2022/08/04 03:35:13;;;;;;;13.68;3.33;;;20.50;99.90;;;;;;5092730;28;20060;-70
2022/08/04 03:38:10;;;;;;;8.80;3.47;;;20.80;99.90;;;;;;5092002;28;20040;-70
2022/08/04 03:40:53;;;;;;;9.88;3.67;;;19.40;99.90;;;;;;5092595;28;20048;-70
2022/08/04 03:43:40;;;;;;;9.70;3.97;;;20.30;99.90;;;;;;5092547;28;20066;-70
2022/08/04 03:46:36;;;;;;;12.35;3.85;;;;;;;;;;5075558;28;20475;-70
2022/08/04 03:49:02;;;;;;;12.55;3.50;;;;;;;;;;5092344;28;20504;-70
2022/08/04 03:54:58;;;;;;;14.20;4.22;;;20.50;99.90;;;;;;5092571;28;20062;-70
2022/08/04 03:57:38;;;;;;;11.10;3.65;;;21.20;99.90;;;;;;5075743;28;20101;-70
2022/08/04 04:00:17;;;;;;;8.02;3.72;;;20.30;99.90;;;;;;5092245;28;20036;-70
2022/08/04 04:03:20;;;;;;;11.60;3.80;;;20.90;99.90;;;;;;5092452;28;20048;-70
2022/08/04 04:06:00;;;;;;;11.90;3.38;;;20.10;99.90;;;;;;5091853;28;20100;-69
2022/08/04 04:08:48;;;;;;;10.27;3.40;;;20.30;99.90;;;;;;5091883;28;20127;-70
2022/08/04 04:11:45;;;;;;;11.82;3.63;;;19.20;99.90;;;;;;5116872;27;20472;-70
2022/08/04 04:14:26;;;;;;;15.23;3.42;;;20.40;99.90;;;;;;5075454;28;20440;-70
2022/08/04 04:17:14;;;;;;;13.43;4.32;;;;;;;;;;5091925;28;20093;-70
2022/08/04 04:19:52;;;;;;;6.80;3.30;;;20.90;99.90;;;;;;5092047;28;20044;-70
2022/08/04 04:22:39;;;;;;;8.77;3.83;;;19.20;99.90;;;;;;5092095;28;20579;-70
2022/08/04 04:25:25;;;;;;;12.73;3.20;;;20.50;99.90;;;;;;5091915;28;20047;-70
2022/08/04 04:28:25;;;;;;;11.70;3.60;;;20.00;99.90;;;;;;5093228;28;20043;-70
2022/08/04 04:31:26;;;;;;;8.63;3.67;;;20.10;99.90;;;;;;5092072;28;20051;-70
2022/08/04 04:34:07;;;;;;;9.63;3.67;;;19.90;99.90;;;;;;5067487;28;20167;-70
2022/08/04 04:36:33;;;;;;;10.63;3.50;;;;;;;;;;5085606;28;20048;-70
2022/08/04 04:38:59;;;;;;;11.13;3.28;;;;;;;;;;5091998;28;20404;-70
2022/08/04 04:41:57;;;;;;;11.23;3.60;;;19.00;99.60;;;;;;5091826;28;20054;-70
2022/08/04 04:44:23;;;;;;;10.50;3.75;;;;;;;;;;5102684;28;20397;-70
2022/08/04 04:47:04;;;;;;;12.70;3.58;;;20.00;99.90;;;;;;5091834;28;20040;-70
2022/08/04 04:49:42;;;;;;;7.93;3.25;;;21.10;99.90;;;;;;5092741;28;20048;-70
2022/08/04 04:52:49;;;;;;;13.25;3.70;;;20.20;99.90;;;;;;5095812;28;20052;-70
2022/08/04 04:55:35;;;;;;;10.05;3.40;;;21.20;99.90;;;;;;5054591;28;20041;-70
2022/08/04 04:58:02;;;;;;;5.07;2.90;;;;;;;;;;5117210;27;20048;-70
2022/08/04 05:00:38;;;;;;;9.75;3.60;;;20.30;99.90;;;;;;5095835;28;20462;-70
2022/08/04 05:03:18;;;;;;;9.60;3.70;;;19.30;99.90;;;;;;5078531;28;20075;-70
2022/08/04 05:06:13;;;;;;;9.27;3.80;;;21.10;99.90;;;;;;5095249;28;20067;-70
2022/08/04 05:08:51;;;;;;;9.40;4.28;;;20.50;99.90;;;;;;5095469;28;20131;-70
2022/08/04 05:11:39;;;;;;;12.10;4.30;;;20.20;99.90;;;;;;5095639;28;20139;-70
2022/08/04 05:14:15;;;;;;;13.35;4.43;;;;;;;;;;5095259;28;20089;-70
2022/08/04 05:16:50;;;;;;;9.95;4.53;;;20.60;99.90;;;;;;5094964;28;20036;-70
2022/08/04 05:19:33;;;;;;;14.38;4.80;;;20.60;99.90;;;;;;5078041;28;20047;-70
2022/08/04 05:22:02;;;;;;;12.10;4.82;;;20.50;99.90;;;;;;5095185;28;20044;-70
2022/08/04 05:24:31;;;;;;;9.23;4.22;;;20.60;99.90;;;;;;5095116;28;20046;-70
2022/08/04 05:27:02;;;;;;;15.60;5.25;;;21.00;99.90;;;;;;5095168;28;20048;-70
2022/08/04 05:29:28;;;;;;;14.15;5.28;;;;;;;;;;5078163;28;20400;-70
2022/08/04 05:31:56;;;;;;;10.77;4.78;;;20.90;99.90;;;;;;5095012;28;20480;-70
2022/08/04 05:34:28;;;;;;;14.18;5.05;;;21.60;99.90;;;;;;5095342;28;20047;-70
2022/08/04 05:37:07;;;;;;;10.65;4.93;;;20.70;99.90;;;;;;5077974;28;20036;-70
2022/08/04 05:39:42;;;;;;;9.98;5.88;;;20.50;99.90;;;;;;5095243;28;20040;-70
2022/08/04 05:42:10;;;;;;;10.80;5.50;;;20.20;99.90;;;;;;5094831;28;20044;-70
2022/08/04 05:44:37;;;;;;;12.85;5.50;;;20.60;99.90;;;;;;5129024;27;20560;-70
2022/08/04 05:47:05;;;;;;;12.07;5.10;;;21.70;99.90;;;;;;5094748;28;20376;-70
2022/08/04 05:49:32;;;;;;;10.65;5.30;;;21.00;99.90;;;;;;5094987;28;20549;-70
2022/08/04 05:52:01;;;;;;;13.60;5.10;;;20.90;99.90;;;;;;5077789;28;20547;-70
2022/08/04 05:54:30;;;;;;;12.43;5.72;;;20.80;99.90;;;;;;5094651;28;20468;-70
2022/08/04 05:56:57;;;;;;;11.82;5.80;;;20.70;99.90;;;;;;5094880;28;20142;-70
2022/08/04 05:59:24;;;;;;;14.10;6.57;;;20.00;99.90;;;;;;5094612;28;20062;-70
2022/08/04 06:01:52;;;;;;;15.45;6.45;;;20.80;99.90;;;;;;5093374;28;20403;-70
2022/08/04 06:04:20;;;;;;;12.55;6.15;;;20.00;99.90;;;;;;5094484;28;20076;-70
2022/08/04 06:06:47;;;;;;;20.05;7.28;;;20.80;99.90;;;;;;5095648;28;20094;-70
2022/08/04 06:09:14;;;;;;;14.05;6.20;;;19.90;99.90;;;;;;5094219;28;20143;-70
2022/08/04 06:11:42;;;;;;;15.68;7.18;;;21.80;99.90;;;;;;5094240;28;20230;-70
2022/08/04 06:14:11;;;;;;;12.00;5.80;;;19.70;99.90;;;;;;5095821;28;20050;-70
2022/08/04 06:16:42;;;;;;;13.25;7.25;;;20.60;99.90;;;;;;5094468;28;20438;-70
2022/08/04 06:19:12;;;;;;;13.77;6.70;;;20.70;99.90;;;;;;5094322;28;20126;-70
2022/08/04 06:21:41;;;;;;;15.07;6.13;;;20.80;99.90;;;;;;5094236;28;20048;-70
2022/08/04 06:24:11;;;;;;;13.88;6.43;;;20.80;99.90;;;;;;5093969;28;20050;-70
2022/08/04 06:26:39;;;;;;;10.63;5.72;;;21.90;99.90;;;;;;5077822;28;20377;-70
2022/08/04 06:29:15;;;;;;;11.88;5.32;;;20.40;99.90;;;;;;5093870;28;20051;-70
2022/08/04 06:31:42;;;;;;;16.55;6.53;;;21.70;99.90;;;;;;5094140;28;20036;-70
2022/08/04 06:34:11;;;;;;;15.80;6.32;;;19.80;99.90;;;;;;5095143;28;20032;-70
2022/08/04 06:36:39;;;;;;;14.82;6.00;;;20.40;99.90;;;;;;5095118;28;20388;-70
2022/08/04 06:39:07;;;;;;;22.65;5.90;;;21.90;99.90;;;;;;5095036;28;20027;-70
2022/08/04 06:41:33;;;;;;;15.70;5.35;;;22.10;99.90;;;;;;5095089;28;20043;-70
2022/08/04 06:44:04;;;;;;;9.57;5.28;;;21.10;99.90;;;;;;5093595;28;20114;-70
2022/08/04 06:46:30;;;;;;;12.32;4.95;;;21.80;99.90;;;;;;5093614;28;20089;-70
2022/08/04 06:48:58;;;;;;;15.82;5.13;;;21.20;99.90;;;;;;5093503;28;20159;-70
2022/08/04 06:51:24;;;;;;;13.85;4.63;;;21.90;99.90;;;;;;5093393;28;20043;-70
2022/08/04 06:53:50;;;;;;;15.45;4.57;;;21.40;99.90;;;;;;5076469;28;20066;-70
2022/08/04 06:56:18;;;;;;;15.25;5.10;;;22.10;99.90;;;;;;5093275;28;20044;-69
2022/08/04 06:58:49;;;;;;;8.35;4.47;;;22.10;99.90;;;;;;5076631;28;20123;-70
2022/08/04 07:01:18;;;;;;;11.68;4.60;;;22.20;99.90;;;;;;5093152;28;20048;-70
2022/08/04 07:03:44;;;;;;;9.63;4.78;;;20.40;99.90;;;;;;5093159;28;20052;-70
2022/08/04 07:06:11;;;;;;;13.80;4.63;;;21.20;99.90;;;;;;5092968;28;20062;-70
2022/08/04 07:08:36;;;;;;;16.05;5.47;;;20.60;99.90;;;;;;5093129;28;20050;-70
2022/08/04 07:11:04;;;;;;;15.75;4.90;;;;;;;;;;5092992;28;20118;-70
2022/08/04 07:13:30;;;;;;;10.75;4.80;;;20.30;99.90;;;;;;5092925;28;20048;-70
2022/08/04 07:15:57;;;;;;;17.27;5.57;;;;;;;;;;5093095;28;20036;-69
2022/08/04 07:18:23;;;;;;;15.00;5.20;;;21.60;99.90;;;;;;5093176;28;20063;-70
2022/08/04 07:20:50;;;;;;;15.60;5.82;;;21.80;99.90;;;;;;5092715;28;20476;-70
2022/08/04 07:23:16;;;;;;;11.65;5.35;;;;;;;;;;5093192;28;20143;-70
2022/08/04 07:25:48;;;;;;;15.35;5.60;;;22.40;99.90;;;;;;5094111;28;20102;-70
2022/08/04 07:28:14;;;;;;;12.85;5.25;;;;;;;;;;5092794;28;20084;-70
2022/08/04 07:30:40;;;;;;;15.32;5.40;;;;;;;;;;5092724;28;20495;-69
2022/08/04 07:33:07;;;;;;;20.88;5.97;;;20.50;99.90;;;;;;5092988;28;20479;-70
2022/08/04 07:35:33;;;;;;;10.07;5.07;;;21.80;99.90;;;;;;5075779;28;20040;-70
2022/08/04 07:37:59;;;;;;;16.33;5.13;;;;;;;;;;5127012;27;20044;-70
2022/08/04 07:40:25;;;;;;;12.23;5.68;;;;;;;;;;5076190;28;20028;-70
2022/08/04 07:42:52;;;;;;;9.93;4.85;;;;;;;;;;5092369;28;20570;-70
2022/08/04 07:45:19;;;;;;;12.20;5.93;;;20.90;99.90;;;;;;5092266;28;20123;-70
2022/08/04 07:47:45;;;;;;;17.80;5.20;;;;;;;;;;5092337;28;20047;-70
2022/08/04 07:50:13;;;;;;;13.00;5.20;;;22.30;99.90;;;;;;5092320;28;20127;-70
2022/08/04 07:52:39;;;;;;;12.73;4.97;;;;;;;;;;5092295;28;20075;-70
2022/08/04 07:55:05;;;;;;;12.55;4.82;;;;;;;;;;5092276;28;20052;-70
2022/08/04 07:57:31;;;;;;;10.35;4.65;;;;;;;;;;5092321;28;20126;-70
2022/08/04 07:59:57;;;;;;;15.18;4.72;;;;;;;;;;5092493;28;20043;-70
2022/08/04 08:02:24;;;;;;;11.27;4.10;;;23.20;99.90;;;;;;5075260;28;20043;-70
2022/08/04 08:04:50;;;;;;;18.50;4.95;;;23.10;99.90;;;;;;5126027;27;20396;-70
2022/08/04 08:07:19;;;;;;;9.43;4.43;;;22.60;99.90;;;;;;5092358;28;20090;-70
2022/08/04 08:09:45;;;;;;;19.48;4.40;;;;;;;;;;5092106;28;20124;-70
2022/08/04 08:12:12;;;;;;;17.05;4.57;;;23.00;99.70;;;;;;5092040;28;20044;-70
2022/08/04 08:14:39;;;;;;;12.93;4.40;;;23.60;99.90;;;;;;5075138;28;20071;-70
2022/08/04 08:17:05;;;;;;;10.57;4.15;;;23.00;99.90;;;;;;5091865;28;20047;-70
2022/08/04 08:19:32;;;;;;;10.35;3.95;;;23.20;99.90;;;;;;5091887;28;20047;-70
2022/08/04 08:21:59;;;;;;;10.88;3.55;;;22.20;99.90;;;;;;5092024;28;20174;-70
2022/08/04 08:24:25;;;;;;;9.50;3.60;;;23.40;99.90;;;;;;5091301;28;20036;-70
2022/08/04 08:26:51;;;;;;;17.45;3.53;;;23.40;99.90;;;;;;5092379;28;20048;-70
2022/08/04 08:29:18;;;;;;;9.85;2.75;;;23.50;98.80;;;;;;5092010;28;20515;-70
2022/08/04 08:31:44;;;;;;;8.10;2.70;;;24.20;99.90;;;;;;5093460;28;20036;-70
2022/08/04 08:34:12;;;;;;;7.85;2.58;;;24.20;99.90;;;;;;5091784;28;20492;-70
2022/08/04 08:37:27;;;;;;;9.43;2.45;;;23.60;98.70;;;;;;5093277;28;20040;-70
2022/08/04 08:40:20;;;;;;;8.00;2.50;;;24.20;98.00;;;;;;5088655;28;20056;-70
2022/08/04 08:42:55;;;;;;;10.50;2.70;;;;;;;;;;5075113;28;20047;-70
2022/08/04 08:45:50;;;;;;;6.95;2.42;;;23.80;97.40;;;;;;5091403;28;20052;-70
2022/08/04 08:48:38;;;;;;;6.97;2.45;;;24.20;99.90;;;;;;5074740;28;20097;-70
2022/08/04 08:51:30;;;;;;;6.65;2.53;;;24.50;99.90;;;;;;5091846;28;20109;-70
2022/08/04 08:54:11;;;;;;;;;;;24.00;97.50;;;;;;5092021;28;20075;-70
2022/08/04 08:56:45;;;;;;;9.45;2.20;;;23.50;97.00;;;;;;5094092;28;19944;-70
2022/08/04 08:59:38;;;;;;;5.57;2.33;;;24.10;95.30;;;;;;5093150;28;20075;-70
2022/08/04 09:02:36;;;;;;;6.20;2.20;;;24.10;98.80;;;;;;5076149;28;20044;-70
2022/08/04 09:05:27;;;;;;;5.47;2.10;;;23.70;99.90;;;;;;5093118;28;20133;-70
2022/08/04 09:08:23;;;;;;;6.20;2.20;;;23.50;99.70;;;;;;5092075;28;20400;-70
2022/08/04 09:11:05;;;;;;;4.25;1.95;;;24.70;99.80;;;;;;5091524;28;20044;-70
2022/08/04 09:13:53;;;;;;;4.72;2.60;;;24.60;94.40;;;;;;5091486;28;20044;-70
2022/08/04 09:16:35;;;;;;;5.38;1.73;;;24.80;94.90;;;;;;5074874;28;20117;-70
2022/08/04 09:19:31;;;;;;;4.25;1.80;;;24.90;98.50;;;;;;5091490;28;20051;-70
2022/08/04 09:22:28;;;;;;;3.55;1.73;;;25.10;98.20;;;;;;5091649;28;20049;-70
2022/08/04 09:25:27;;;;;;;3.70;1.80;;;25.40;97.10;;;;;;5090702;28;20100;-70
2022/08/04 09:27:55;;;;;;;3.92;1.80;;;25.00;93.70;;;;;;5091136;28;20040;-71
2022/08/04 09:30:50;;;;;;;3.15;1.83;;;25.60;97.50;;;;;;5091176;28;20395;-71
2022/08/04 09:33:31;;;;;;;6.90;2.00;;;25.30;92.30;;;;;;5074348;28;20032;-71
2022/08/04 09:36:14;;;;;;;3.33;1.55;;;25.50;92.20;;;;;;5074665;28;20036;-71
2022/08/04 09:38:58;;;;;;;3.92;1.98;;;25.80;96.80;;;;;;5095202;28;20058;-71
2022/08/04 09:41:52;;;;;;;6.85;2.70;;;25.10;91.20;;;;;;5077743;28;20039;-69
2022/08/04 09:44:41;;;;;;;4.30;2.00;;;25.50;96.70;;;;;;5094710;28;20180;-69
2022/08/04 09:47:51;;;;;;;5.88;1.80;;;25.30;96.20;;;;;;5094826;28;20483;-69
2022/08/04 09:50:40;;;;;;;6.65;1.98;;;25.40;96.10;;;;;;5094661;28;20036;-69
2022/08/04 09:53:25;;;;;;;3.63;1.60;;;25.40;94.80;;;;;;5094998;28;20111;-69
2022/08/04 09:56:10;;;;;;;4.68;1.83;;;25.60;94.90;;;;;;5094547;28;20043;-69
2022/08/04 09:59:06;;;;;;;4.95;1.70;;;25.20;94.90;;;;;;5094536;28;20051;-69
2022/08/04 10:01:35;;;;;;;7.22;1.98;;;25.40;90.30;;;;;;5120715;27;20052;-69
2022/08/04 10:04:04;;;;;;;3.53;1.70;;;25.60;91.60;;;;;;5094469;28;20056;-69
2022/08/04 10:07:08;;;;;;;10.02;2.22;;;25.00;90.40;;;;;;5095480;28;20064;-69
2022/08/04 10:09:34;;;;;;;7.60;2.50;;;;;;;;;;5094390;28;20079;-68
2022/08/04 10:12:16;;;;;;;7.13;2.72;;;26.10;94.80;;;;;;5077476;28;20058;-69
2022/08/04 10:15:03;;;;;;;3.83;1.50;;;26.20;93.60;;;;;;5094092;28;20079;-69
2022/08/04 10:17:59;;;;;;;2.70;1.48;;;26.10;87.60;;;;;;5094089;28;20471;-69
2022/08/04 10:20:47;;;;;;;3.72;1.23;;;25.20;93.20;;;;;;5094371;28;20392;-69
2022/08/04 10:23:35;;;;;;;4.43;1.77;;;26.10;93.20;;;;;;5093949;28;20036;-69
2022/08/04 10:26:24;;;;;;;3.50;1.73;;;26.20;93.00;;;;;;5093864;28;20056;-69
2022/08/04 10:29:02;;;;;;;2.97;1.50;;;25.70;92.40;;;;;;5094062;28;20080;-69
2022/08/04 10:31:38;;;;;;;5.47;1.60;;;26.00;85.50;;;;;;5094266;28;20044;-69
2022/08/04 10:34:19;;;;;;;4.80;1.48;;;25.90;83.00;;;;;;5094018;28;20036;-69
2022/08/04 10:37:17;;;;;;;4.80;1.60;;;25.70;83.40;;;;;;5093788;28;20051;-69
2022/08/04 10:43:00;;;;;;;3.30;1.33;;;25.20;86.40;;;;;;5093269;28;20088;-69
2022/08/04 10:45:38;;;;;;;4.40;1.70;;;25.80;84.90;;;;;;5093187;28;20040;-69
2022/08/04 10:48:18;;;;;;;5.72;1.60;;;24.90;85.40;;;;;;5093076;28;20043;-69
2022/08/04 10:51:12;;;;;;;4.07;1.75;;;25.60;87.10;;;;;;5076243;28;20154;-69
2022/08/04 10:53:40;;;;;;;7.13;1.70;;;25.40;86.60;;;;;;5098556;27;20048;-70
2022/08/04 10:56:22;;;;;;;7.15;1.88;;;25.20;91.30;;;;;;5093180;28;20036;-69
2022/08/04 10:58:57;;;;;;;;;;;25.70;87.90;;;;;;5076797;28;20036;-69
2022/08/04 11:01:30;;;;;;;3.42;1.60;;;25.00;85.70;;;;;;5092876;28;19915;-69
2022/08/04 11:04:00;;;;;;;3.33;1.27;;;26.20;92.30;;;;;;5094646;28;20051;-69
2022/08/04 11:06:27;;;;;;;2.88;1.30;;;25.40;88.40;;;;;;5075969;28;20484;-70
2022/08/04 11:08:57;;;;;;;3.47;1.55;;;25.70;91.30;;;;;;5076110;28;20407;-69
2022/08/04 11:11:40;;;;;;;4.95;1.63;;;26.50;88.00;;;;;;5092861;28;20044;-70
2022/08/04 11:14:15;;;;;;;2.63;1.88;;;26.20;91.60;;;;;;5094119;28;20115;-69
2022/08/04 11:17:10;;;;;;;3.95;1.50;;;25.50;82.30;;;;;;5093143;28;20051;-69
2022/08/04 11:19:55;;;;;;;5.55;1.70;;;25.90;91.80;;;;;;5090905;28;20048;-69
2022/08/04 11:22:21;;;;;;;3.95;1.42;;;;;;;;;;5093129;28;20067;-69
2022/08/04 11:25:12;;;;;;;3.55;1.50;;;26.10;91.10;;;;;;5093088;28;20044;-69
2022/08/04 11:27:59;;;;;;;3.78;1.90;;;26.50;91.00;;;;;;5092860;28;20075;-69
2022/08/04 11:30:30;;;;;;;5.82;1.60;;;26.20;91.10;;;;;;5092721;28;20486;-69
2022/08/04 11:33:34;;;;;;;3.92;1.80;;;26.00;83.70;;;;;;5092748;28;20048;-69
2022/08/04 11:36:26;;;;;;;4.65;1.52;;;25.60;80.70;;;;;;5092676;28;20545;-69
2022/08/04 11:39:14;;;;;;;3.83;1.45;;;25.90;80.70;;;;;;5092622;28;20123;-69
2022/08/04 11:41:59;;;;;;;4.32;1.83;;;26.60;90.70;;;;;;5092656;28;20044;-69
2022/08/04 11:44:36;;;;;;;5.60;1.48;;;26.40;90.00;;;;;;5092443;28;20510;-69
2022/08/04 11:47:08;;;;;;;5.50;1.90;;;26.60;90.60;;;;;;5092681;28;20044;-69
2022/08/04 11:49:42;;;;;;;;;;;26.20;82.90;;;;;;5092828;28;20141;-69
2022/08/04 11:52:12;;;;;;;3.50;1.63;;;26.40;82.60;;;;;;5092497;28;20020;-69
2022/08/04 11:54:40;;;;;;;6.55;1.50;;;26.70;90.70;;;;;;5092459;28;20040;-69
2022/08/04 11:57:06;;;;;;;6.10;1.75;;;27.70;83.20;;;;;;5092318;28;20036;-69
2022/08/04 11:59:35;;;;;;;4.15;1.60;;;25.90;90.20;;;;;;5091457;28;20131;-69
2022/08/04 12:02:29;;;;;;;5.60;1.60;;;25.20;90.50;;;;;;5092255;28;20109;-69
2022/08/04 12:04:57;;;;;;;6.57;1.98;;;25.70;90.60;;;;;;5092243;28;20056;-69
2022/08/04 12:07:39;;;;;;;4.00;1.52;;;26.00;78.70;;;;;;5092126;28;20048;-69
2022/08/04 12:10:12;;;;;;;;;;;26.30;82.60;;;;;;5092431;28;20129;-69
2022/08/04 12:12:52;;;;;;;5.03;1.88;;;26.20;81.50;;;;;;5092551;28;19939;-69
2022/08/04 12:15:30;;;;;;;4.55;1.60;;;26.00;90.30;;;;;;5092062;28;20051;-69
2022/08/04 12:18:26;;;;;;;7.68;1.63;;;26.00;90.10;;;;;;5092323;28;20032;-70
2022/08/04 12:21:02;;;;;;;4.55;1.70;;;26.70;78.30;;;;;;5092173;28;20040;-69
2022/08/04 12:23:48;;;;;;;6.32;1.70;;;26.20;88.50;;;;;;5092105;28;20044;-69
2022/08/04 12:26:33;;;;;;;8.15;1.80;;;26.70;78.20;;;;;;5093061;28;20036;-69
2022/08/04 12:29:01;;;;;;;5.30;1.50;;;27.20;87.80;;;;;;5092159;28;20434;-69
2022/08/04 12:31:34;;;;;;;5.93;1.58;;;26.60;88.00;;;;;;5092045;28;20575;-69
2022/08/04 12:34:23;;;;;;;11.90;1.92;;;26.50;84.60;;;;;;5091948;28;20115;-69
2022/08/04 12:37:12;;;;;;;3.88;1.50;;;26.50;88.30;;;;;;5115179;28;20056;-69
2022/08/04 12:39:40;;;;;;;8.32;2.30;;;26.80;84.40;;;;;;5097745;28;20131;-69
2022/08/04 12:42:26;;;;;;;7.50;1.85;;;26.20;75.50;;;;;;5091864;28;20507;-69
2022/08/04 12:44:53;;;;;;;3.53;1.80;;;26.20;86.90;;;;;;5092078;28;20044;-69
2022/08/04 12:47:23;;;;;;;6.20;1.92;;;26.70;87.70;;;;;;5092100;28;20040;-70
2022/08/04 12:49:51;;;;;;;10.18;2.13;;;25.60;81.00;;;;;;5091778;28;20506;-69
2022/08/04 12:52:19;;;;;;;3.13;1.70;;;26.70;87.50;;;;;;5093216;28;20036;-69
2022/08/04 12:54:50;;;;;;;6.68;2.03;;;26.90;86.60;;;;;;5091703;28;20067;-69
2022/08/04 12:57:17;;;;;;;8.10;2.60;;;26.60;86.80;;;;;;5091834;28;20051;-69
2022/08/04 12:59:45;;;;;;;8.05;2.28;;;26.90;86.70;;;;;;5091523;28;20047;-70
2022/08/04 13:02:40;;;;;;;9.55;2.05;;;26.40;74.50;;;;;;5092816;28;20039;-69
2022/08/04 13:05:08;;;;;;;5.82;1.95;;;26.80;83.60;;;;;;5089907;28;20055;-69
2022/08/04 13:07:41;;;;;;;8.68;1.98;;;26.90;85.90;;;;;;5091554;28;20488;-69
2022/08/04 13:10:16;;;;;;;6.68;2.08;;;27.20;86.00;;;;;;5091792;28;20055;-70
2022/08/04 13:12:54;;;;;;;8.95;2.80;;;27.00;85.90;;;;;;5095359;28;20547;-69
2022/08/04 13:15:21;;;;;;;6.85;2.05;;;26.80;76.70;;;;;;5095833;28;20061;-69
2022/08/04 13:18:02;;;;;;;9.07;2.30;;;26.40;74.60;;;;;;5095320;28;20044;-69
2022/08/04 13:20:31;;;;;;;10.02;2.22;;;26.10;87.70;;;;;;5095567;28;20051;-69
2022/08/04 13:23:07;;;;;;;9.38;2.60;;;26.80;89.40;;;;;;5078326;28;20054;-69
2022/08/04 13:25:38;;;;;;;7.75;2.17;;;26.10;90.00;;;;;;5095278;28;20044;-70
2022/08/04 13:28:10;;;;;;;10.48;3.08;;;26.60;81.60;;;;;;5095253;28;20048;-69
2022/08/04 13:30:37;;;;;;;10.85;3.17;;;;;;;;;;5095458;28;20084;-69
2022/08/04 13:33:04;;;;;;;14.13;3.75;;;28.00;84.30;;;;;;5095039;28;20040;-69
2022/08/04 13:35:33;;;;;;;16.10;3.28;;;26.40;83.00;;;;;;5095165;28;20036;-69
2022/08/04 13:38:00;;;;;;;14.45;3.45;;;26.70;90.90;;;;;;5095179;28;20079;-69
2022/08/04 13:40:27;;;;;;;11.45;3.05;;;26.00;89.00;;;;;;5095083;28;20039;-70
2022/08/04 13:42:54;;;;;;;10.95;3.70;;;26.90;91.40;;;;;;5095175;28;20051;-69
2022/08/04 13:45:21;;;;;;;8.55;3.20;;;26.20;91.40;;;;;;5077997;28;20043;-69
2022/08/04 13:47:50;;;;;;;10.85;2.67;;;26.40;91.70;;;;;;5094951;28;20054;-69
2022/08/04 13:50:19;;;;;;;11.13;3.40;;;26.50;92.10;;;;;;5094875;28;20090;-69